SIA945 WADD-WSSS
Flight info
| Callsign | SIA945 |
|---|---|
| Flight time | 2h 15m |
| Altitude | 38000 |
| Route | BORGI DCT UDONO M635 SURGA T23 UGEBO UGEBO1A |
| Aircraft | B772/H-SDE2E3FGHIJ5LORVWXY/LB1D1 |
Departure
| Time | 2026-05-04 12:41 |
|---|---|
| Airport | Denpasar I Gusti Ngurah Rai International Airport (WADD) |
Arrival
| Time | 2026-05-04 14:56 |
|---|---|
| Airport | Singapore Changi Airport (WSSS) |
| Time | Latitude | Longitude | Altitude | Speed | Heading |
|---|---|---|---|---|---|
| 2026-05-04 12:19 | -8.74543 | 115.16865 | 30 ft | 0 kts | 357° |
| 2026-05-04 12:27 | -8.74551 | 115.16865 | 30 ft | 2 kts | 1° |
| 2026-05-04 12:28 | -8.74566 | 115.16865 | 30 ft | 2 kts | 359° |
| 2026-05-04 12:28 | -8.74581 | 115.16865 | 30 ft | 2 kts | 358° |
| 2026-05-04 12:28 | -8.74596 | 115.16866 | 29 ft | 2 kts | 358° |
| 2026-05-04 12:28 | -8.74606 | 115.16866 | 29 ft | 2 kts | 358° |
| 2026-05-04 12:29 | -8.74621 | 115.16868 | 29 ft | 2 kts | 342° |
| 2026-05-04 12:29 | -8.74635 | 115.16874 | 29 ft | 2 kts | 328° |
| 2026-05-04 12:29 | -8.74647 | 115.16883 | 29 ft | 2 kts | 315° |
| 2026-05-04 12:29 | -8.74657 | 115.16894 | 29 ft | 2 kts | 302° |
| 2026-05-04 12:30 | -8.74663 | 115.16908 | 29 ft | 2 kts | 289° |
| 2026-05-04 12:30 | -8.74667 | 115.16922 | 29 ft | 2 kts | 276° |
| 2026-05-04 12:30 | -8.74668 | 115.16931 | 29 ft | 0 kts | 268° |
| 2026-05-04 12:30 | -8.74667 | 115.16935 | 29 ft | 0 kts | 267° |
| 2026-05-04 12:31 | -8.74668 | 115.16934 | 29 ft | 0 kts | 267° |
| 2026-05-04 12:34 | -8.74668 | 115.16933 | 29 ft | 0 kts | 267° |
| 2026-05-04 12:34 | -8.74668 | 115.16916 | 29 ft | 3 kts | 267° |
| 2026-05-04 12:35 | -8.74670 | 115.16878 | 29 ft | 6 kts | 267° |
| 2026-05-04 12:35 | -8.74672 | 115.16821 | 29 ft | 9 kts | 268° |
| 2026-05-04 12:35 | -8.74674 | 115.16747 | 29 ft | 11 kts | 269° |
| 2026-05-04 12:35 | -8.74677 | 115.16659 | 29 ft | 13 kts | 268° |
| 2026-05-04 12:36 | -8.74681 | 115.16556 | 29 ft | 15 kts | 268° |
| 2026-05-04 12:36 | -8.74686 | 115.16440 | 29 ft | 17 kts | 267° |
| 2026-05-04 12:36 | -8.74692 | 115.16312 | 28 ft | 19 kts | 267° |
| 2026-05-04 12:36 | -8.74699 | 115.16170 | 27 ft | 21 kts | 266° |
| 2026-05-04 12:37 | -8.74708 | 115.16014 | 25 ft | 23 kts | 266° |
| 2026-05-04 12:37 | -8.74712 | 115.15845 | 24 ft | 25 kts | 271° |
| 2026-05-04 12:37 | -8.74716 | 115.15664 | 22 ft | 26 kts | 268° |
| 2026-05-04 12:37 | -8.74724 | 115.15480 | 21 ft | 25 kts | 266° |
| 2026-05-04 12:38 | -8.74778 | 115.15397 | 21 ft | 5 kts | 193° |
| 2026-05-04 12:38 | -8.74780 | 115.15397 | 21 ft | 0 kts | 192° |
| 2026-05-04 12:39 | -8.74786 | 115.15396 | 21 ft | 1 kts | 188° |
| 2026-05-04 12:39 | -8.74807 | 115.15395 | 21 ft | 4 kts | 182° |
| 2026-05-04 12:39 | -8.74844 | 115.15396 | 21 ft | 6 kts | 167° |
| 2026-05-04 12:40 | -8.74883 | 115.15428 | 22 ft | 8 kts | 116° |
| 2026-05-04 12:40 | -8.74890 | 115.15469 | 22 ft | 0 kts | 89° |
| 2026-05-04 12:40 | -8.74889 | 115.15501 | 22 ft | 16 kts | 89° |
| 2026-05-04 12:40 | -8.74873 | 115.15952 | 25 ft | 111 kts | 88° |
| 2026-05-04 12:41 | -8.74839 | 115.17005 | 104 ft | 181 kts | 90° |
| 2026-05-04 12:41 | -8.74760 | 115.18254 | 1151 ft | 178 kts | 86° |
| 2026-05-04 12:41 | -8.74699 | 115.19438 | 2254 ft | 174 kts | 89° |
| 2026-05-04 12:41 | -8.74676 | 115.20677 | 2732 ft | 181 kts | 88° |
| 2026-05-04 12:42 | -8.74626 | 115.22055 | 2997 ft | 200 kts | 87° |
| 2026-05-04 12:42 | -8.74566 | 115.23523 | 3237 ft | 219 kts | 87° |
| 2026-05-04 12:42 | -8.74499 | 115.25161 | 3590 ft | 236 kts | 88° |
| 2026-05-04 12:42 | -8.74425 | 115.26977 | 3984 ft | 252 kts | 88° |
| 2026-05-04 12:43 | -8.74347 | 115.28905 | 4683 ft | 256 kts | 88° |
| 2026-05-04 12:43 | -8.74269 | 115.30815 | 5352 ft | 259 kts | 88° |
| 2026-05-04 12:43 | -8.74192 | 115.32705 | 5998 ft | 263 kts | 88° |
| 2026-05-04 12:43 | -8.74113 | 115.34649 | 6623 ft | 267 kts | 88° |
| 2026-05-04 12:44 | -8.74034 | 115.36583 | 7229 ft | 271 kts | 88° |
| 2026-05-04 12:44 | -8.73955 | 115.38534 | 7852 ft | 273 kts | 88° |
| 2026-05-04 12:44 | -8.73874 | 115.40512 | 8432 ft | 277 kts | 88° |
| 2026-05-04 12:44 | -8.73791 | 115.42522 | 8925 ft | 282 kts | 88° |
| 2026-05-04 12:45 | -8.73709 | 115.44524 | 9030 ft | 282 kts | 88° |
| 2026-05-04 12:45 | -8.73627 | 115.46520 | 9044 ft | 281 kts | 88° |
| 2026-05-04 12:45 | -8.73546 | 115.48501 | 9049 ft | 281 kts | 88° |
| 2026-05-04 12:45 | -8.73225 | 115.50466 | 9040 ft | 280 kts | 69° |
| 2026-05-04 12:46 | -8.72147 | 115.52167 | 9045 ft | 283 kts | 51° |
| 2026-05-04 12:46 | -8.70780 | 115.53645 | 9043 ft | 285 kts | 47° |
| 2026-05-04 12:46 | -8.69366 | 115.55071 | 9039 ft | 284 kts | 46° |
| 2026-05-04 12:46 | -8.67917 | 115.56522 | 9035 ft | 284 kts | 46° |
| 2026-05-04 12:47 | -8.66457 | 115.57984 | 9034 ft | 284 kts | 46° |
| 2026-05-04 12:47 | -8.65470 | 115.58973 | 9033 ft | 285 kts | 46° |
| 2026-05-04 12:47 | -8.63549 | 115.60900 | 9029 ft | 284 kts | 46° |
| 2026-05-04 12:47 | -8.62064 | 115.62390 | 9027 ft | 284 kts | 46° |
| 2026-05-04 12:48 | -8.60616 | 115.63841 | 9030 ft | 285 kts | 46° |
| 2026-05-04 12:48 | -8.59152 | 115.65310 | 9027 ft | 284 kts | 46° |
| 2026-05-04 12:48 | -8.57700 | 115.66765 | 9029 ft | 285 kts | 46° |
| 2026-05-04 12:48 | -8.56203 | 115.68217 | 9020 ft | 285 kts | 39° |
| 2026-05-04 12:49 | -8.54274 | 115.69117 | 9020 ft | 291 kts | 12° |
| 2026-05-04 12:49 | -8.52076 | 115.69170 | 9467 ft | 300 kts | 357° |
| 2026-05-04 12:49 | -8.49901 | 115.68949 | 10247 ft | 297 kts | 353° |
| 2026-05-04 12:49 | -8.47792 | 115.68377 | 10530 ft | 315 kts | 338° |
| 2026-05-04 12:50 | -8.45747 | 115.67141 | 10729 ft | 335 kts | 321° |
| 2026-05-04 12:50 | -8.44041 | 115.65204 | 10909 ft | 356 kts | 303° |
| 2026-05-04 12:50 | -8.42988 | 115.62699 | 11063 ft | 375 kts | 283° |
| 2026-05-04 12:50 | -8.42810 | 115.59889 | 11180 ft | 392 kts | 265° |
| 2026-05-04 12:51 | -8.43316 | 115.57072 | 11568 ft | 399 kts | 257° |
| 2026-05-04 12:51 | -8.43887 | 115.54282 | 12190 ft | 400 kts | 259° |
| 2026-05-04 12:51 | -8.44325 | 115.51427 | 12801 ft | 402 kts | 262° |
| 2026-05-04 12:51 | -8.44667 | 115.48440 | 13423 ft | 406 kts | 264° |
| 2026-05-04 12:52 | -8.44920 | 115.45482 | 14081 ft | 410 kts | 265° |
| 2026-05-04 12:52 | -8.45117 | 115.42564 | 14753 ft | 413 kts | 266° |
| 2026-05-04 12:52 | -8.45285 | 115.39575 | 15468 ft | 416 kts | 267° |
| 2026-05-04 12:52 | -8.45428 | 115.36584 | 16173 ft | 420 kts | 267° |
| 2026-05-04 12:53 | -8.45554 | 115.33581 | 16881 ft | 423 kts | 268° |
| 2026-05-04 12:53 | -8.45632 | 115.31593 | 17316 ft | 425 kts | 268° |
| 2026-05-04 12:53 | -8.45778 | 115.27589 | 18160 ft | 431 kts | 268° |
| 2026-05-04 12:53 | -8.45888 | 115.24536 | 18785 ft | 434 kts | 268° |
| 2026-05-04 12:54 | -8.45996 | 115.21485 | 19387 ft | 438 kts | 268° |
| 2026-05-04 12:54 | -8.46101 | 115.18405 | 19973 ft | 442 kts | 268° |
| 2026-05-04 12:54 | -8.46206 | 115.15288 | 20562 ft | 446 kts | 268° |
| 2026-05-04 12:54 | -8.46310 | 115.12149 | 21129 ft | 450 kts | 268° |
| 2026-05-04 12:55 | -8.46395 | 115.08988 | 21668 ft | 453 kts | 271° |
| 2026-05-04 12:55 | -8.46103 | 115.05823 | 22214 ft | 456 kts | 281° |
| 2026-05-04 12:55 | -8.45297 | 115.02729 | 22769 ft | 459 kts | 290° |
| 2026-05-04 12:55 | -8.43974 | 114.99752 | 23303 ft | 463 kts | 299° |
| 2026-05-04 12:56 | -8.42186 | 114.97050 | 23839 ft | 466 kts | 309° |
| 2026-05-04 12:56 | -8.39956 | 114.94659 | 24356 ft | 469 kts | 318° |
| 2026-05-04 12:56 | -8.37345 | 114.92662 | 24837 ft | 473 kts | 327° |
| 2026-05-04 12:56 | -8.34444 | 114.90883 | 25353 ft | 477 kts | 330° |
| 2026-05-04 12:57 | -8.31495 | 114.89163 | 25877 ft | 481 kts | 330° |
| 2026-05-04 12:57 | -8.28390 | 114.87356 | 26434 ft | 484 kts | 330° |
| 2026-05-04 12:57 | -8.25303 | 114.85550 | 26952 ft | 488 kts | 330° |
| 2026-05-04 12:57 | -8.22231 | 114.83746 | 27471 ft | 491 kts | 330° |
| 2026-05-04 12:58 | -8.19164 | 114.81940 | 27943 ft | 496 kts | 330° |
| 2026-05-04 12:58 | -8.17083 | 114.80712 | 28253 ft | 498 kts | 330° |
| 2026-05-04 12:58 | -8.12756 | 114.78156 | 28885 ft | 503 kts | 330° |
| 2026-05-04 12:58 | -8.09493 | 114.76227 | 29413 ft | 506 kts | 329° |
| 2026-05-04 12:59 | -8.06198 | 114.74277 | 30119 ft | 504 kts | 329° |
| 2026-05-04 12:59 | -8.02876 | 114.72312 | 30941 ft | 499 kts | 329° |
| 2026-05-04 12:59 | -7.99655 | 114.70405 | 31667 ft | 496 kts | 329° |
| 2026-05-04 12:59 | -7.96430 | 114.68496 | 32337 ft | 494 kts | 329° |
| 2026-05-04 13:00 | -7.93196 | 114.66582 | 32985 ft | 492 kts | 329° |
| 2026-05-04 13:00 | -7.89928 | 114.64648 | 33741 ft | 490 kts | 328° |
| 2026-05-04 13:00 | -7.86705 | 114.62846 | 34539 ft | 486 kts | 331° |
| 2026-05-04 13:00 | -7.83414 | 114.61073 | 35373 ft | 481 kts | 331° |
| 2026-05-04 13:01 | -7.80133 | 114.59305 | 36108 ft | 477 kts | 331° |
| 2026-05-04 13:01 | -7.76950 | 114.57586 | 36659 ft | 476 kts | 331° |
| 2026-05-04 13:01 | -7.73822 | 114.55894 | 37124 ft | 475 kts | 331° |
| 2026-05-04 13:01 | -7.70803 | 114.54253 | 37544 ft | 475 kts | 329° |
| 2026-05-04 13:02 | -7.67910 | 114.52276 | 37926 ft | 473 kts | 320° |
| 2026-05-04 13:02 | -7.63262 | 114.47120 | 37929 ft | 472 kts | 302° |
| 2026-05-04 13:03 | -7.60390 | 114.40857 | 37939 ft | 472 kts | 290° |
| 2026-05-04 13:03 | -7.58009 | 114.34487 | 37913 ft | 472 kts | 294° |
| 2026-05-04 13:04 | -7.54440 | 114.28950 | 37927 ft | 473 kts | 312° |
| 2026-05-04 13:04 | -7.49299 | 114.24556 | 37927 ft | 475 kts | 323° |
| 2026-05-04 13:05 | -7.43486 | 114.20327 | 37928 ft | 474 kts | 323° |
| 2026-05-04 13:05 | -7.37706 | 114.16129 | 37928 ft | 474 kts | 323° |
| 2026-05-04 13:06 | -7.31855 | 114.11881 | 37927 ft | 474 kts | 323° |
| 2026-05-04 13:06 | -7.26024 | 114.07651 | 37924 ft | 474 kts | 323° |
| 2026-05-04 13:07 | -7.20122 | 114.03370 | 37929 ft | 474 kts | 323° |
| 2026-05-04 13:07 | -7.14422 | 113.99237 | 37914 ft | 474 kts | 323° |
| 2026-05-04 13:08 | -7.08587 | 113.95008 | 37913 ft | 476 kts | 323° |
| 2026-05-04 13:08 | -7.02884 | 113.90876 | 37916 ft | 476 kts | 323° |
| 2026-05-04 13:09 | -6.97367 | 113.86880 | 37916 ft | 474 kts | 323° |
| 2026-05-04 13:09 | -6.91901 | 113.82923 | 37920 ft | 474 kts | 323° |
| 2026-05-04 13:10 | -6.86485 | 113.79004 | 37918 ft | 475 kts | 324° |
| 2026-05-04 13:10 | -6.80926 | 113.74983 | 37907 ft | 475 kts | 323° |
| 2026-05-04 13:11 | -6.75235 | 113.70867 | 37896 ft | 477 kts | 323° |
| 2026-05-04 13:11 | -6.69513 | 113.66730 | 37887 ft | 475 kts | 323° |
| 2026-05-04 13:12 | -6.63690 | 113.62521 | 37887 ft | 474 kts | 324° |
| 2026-05-04 13:12 | -6.57962 | 113.58382 | 37889 ft | 474 kts | 324° |
| 2026-05-04 13:13 | -6.52209 | 113.54227 | 37890 ft | 475 kts | 324° |
| 2026-05-04 13:13 | -6.46354 | 113.49998 | 37888 ft | 475 kts | 324° |
| 2026-05-04 13:14 | -6.40613 | 113.45854 | 37889 ft | 475 kts | 324° |
| 2026-05-04 13:14 | -6.34753 | 113.41625 | 37893 ft | 474 kts | 324° |
| 2026-05-04 13:15 | -6.29015 | 113.37484 | 37896 ft | 474 kts | 324° |
| 2026-05-04 13:15 | -6.23816 | 113.32943 | 37891 ft | 474 kts | 310° |
| 2026-05-04 13:16 | -6.19381 | 113.27258 | 37892 ft | 474 kts | 308° |
| 2026-05-04 13:16 | -6.14997 | 113.21546 | 37894 ft | 473 kts | 307° |
| 2026-05-04 13:17 | -6.10675 | 113.15920 | 37896 ft | 474 kts | 307° |
| 2026-05-04 13:17 | -6.06285 | 113.10207 | 37892 ft | 473 kts | 307° |
| 2026-05-04 13:18 | -6.01957 | 113.04577 | 37889 ft | 474 kts | 308° |
| 2026-05-04 13:18 | -5.97607 | 112.98918 | 37889 ft | 475 kts | 308° |
| 2026-05-04 13:19 | -5.93289 | 112.93305 | 37888 ft | 474 kts | 308° |
| 2026-05-04 13:19 | -5.89023 | 112.87760 | 37889 ft | 473 kts | 308° |
| 2026-05-04 13:20 | -5.84572 | 112.81977 | 37889 ft | 473 kts | 308° |
| 2026-05-04 13:20 | -5.80220 | 112.76323 | 37890 ft | 474 kts | 308° |
| 2026-05-04 13:21 | -5.75814 | 112.70601 | 37890 ft | 474 kts | 308° |
| 2026-05-04 13:21 | -5.71457 | 112.64945 | 37890 ft | 475 kts | 308° |
| 2026-05-04 13:22 | -5.66999 | 112.59160 | 37891 ft | 475 kts | 308° |
| 2026-05-04 13:22 | -5.62616 | 112.53472 | 37889 ft | 474 kts | 308° |
| 2026-05-04 13:23 | -5.58130 | 112.47653 | 37890 ft | 474 kts | 308° |
| 2026-05-04 13:23 | -5.53721 | 112.41935 | 37886 ft | 474 kts | 308° |
| 2026-05-04 13:24 | -5.49279 | 112.36177 | 37881 ft | 475 kts | 308° |
| 2026-05-04 13:24 | -5.44961 | 112.30580 | 37873 ft | 477 kts | 308° |
| 2026-05-04 13:25 | -5.38387 | 112.22063 | 37873 ft | 477 kts | 308° |
| 2026-05-04 13:25 | -5.34005 | 112.16387 | 37883 ft | 476 kts | 308° |
| 2026-05-04 13:26 | -5.29670 | 112.10773 | 37889 ft | 476 kts | 308° |
| 2026-05-04 13:26 | -5.25307 | 112.05126 | 37888 ft | 477 kts | 308° |
| 2026-05-04 13:27 | -5.20958 | 111.99497 | 37888 ft | 477 kts | 308° |
| 2026-05-04 13:27 | -5.16552 | 111.93796 | 37888 ft | 479 kts | 309° |
| 2026-05-04 13:28 | -5.12144 | 111.88093 | 37889 ft | 478 kts | 308° |
| 2026-05-04 13:28 | -5.07686 | 111.82329 | 37888 ft | 479 kts | 308° |
| 2026-05-04 13:29 | -5.03287 | 111.76641 | 37889 ft | 480 kts | 308° |
| 2026-05-04 13:29 | -4.98882 | 111.70948 | 37889 ft | 480 kts | 308° |
| 2026-05-04 13:30 | -4.94388 | 111.65139 | 37884 ft | 480 kts | 309° |
| 2026-05-04 13:30 | -4.89952 | 111.59409 | 37880 ft | 480 kts | 309° |
| 2026-05-04 13:31 | -4.85447 | 111.53589 | 37875 ft | 480 kts | 308° |
| 2026-05-04 13:31 | -4.80955 | 111.47788 | 37870 ft | 481 kts | 308° |
| 2026-05-04 13:32 | -4.76427 | 111.41943 | 37871 ft | 481 kts | 308° |
| 2026-05-04 13:32 | -4.71916 | 111.36121 | 37878 ft | 481 kts | 308° |
| 2026-05-04 13:33 | -4.67367 | 111.30251 | 37886 ft | 482 kts | 309° |
| 2026-05-04 13:33 | -4.62875 | 111.24456 | 37889 ft | 481 kts | 308° |
| 2026-05-04 13:34 | -4.58366 | 111.18617 | 37889 ft | 482 kts | 308° |
| 2026-05-04 13:34 | -4.53900 | 111.12815 | 37890 ft | 483 kts | 308° |
| 2026-05-04 13:35 | -4.47321 | 111.04273 | 37889 ft | 482 kts | 308° |
| 2026-05-04 13:36 | -4.42815 | 110.98426 | 37889 ft | 483 kts | 308° |
| 2026-05-04 13:36 | -4.38319 | 110.92594 | 37889 ft | 483 kts | 308° |
| 2026-05-04 13:37 | -4.33814 | 110.86750 | 37889 ft | 483 kts | 308° |
| 2026-05-04 13:37 | -4.29360 | 110.80975 | 37878 ft | 483 kts | 308° |
| 2026-05-04 13:38 | -4.24938 | 110.75242 | 37868 ft | 483 kts | 308° |
| 2026-05-04 13:38 | -4.20476 | 110.69458 | 37870 ft | 481 kts | 308° |
| 2026-05-04 13:39 | -4.16066 | 110.63743 | 37871 ft | 482 kts | 308° |
| 2026-05-04 13:39 | -4.11620 | 110.57983 | 37883 ft | 482 kts | 308° |
| 2026-05-04 13:40 | -4.07195 | 110.52251 | 37890 ft | 482 kts | 308° |
| 2026-05-04 13:40 | -4.02730 | 110.46469 | 37891 ft | 482 kts | 308° |
| 2026-05-04 13:41 | -3.98251 | 110.40669 | 37891 ft | 483 kts | 308° |
| 2026-05-04 13:41 | -3.93573 | 110.34866 | 37893 ft | 482 kts | 311° |
| 2026-05-04 13:42 | -3.86524 | 110.26722 | 37889 ft | 481 kts | 311° |
| 2026-05-04 13:42 | -3.81723 | 110.21150 | 37889 ft | 481 kts | 311° |
| 2026-05-04 13:43 | -3.76920 | 110.15564 | 37890 ft | 482 kts | 311° |
| 2026-05-04 13:43 | -3.72147 | 110.10010 | 37889 ft | 482 kts | 311° |
| 2026-05-04 13:44 | -3.67296 | 110.04363 | 37889 ft | 482 kts | 311° |
| 2026-05-04 13:44 | -3.62565 | 109.98855 | 37884 ft | 482 kts | 311° |
| 2026-05-04 13:45 | -3.57849 | 109.93366 | 37878 ft | 481 kts | 311° |
| 2026-05-04 13:45 | -3.53068 | 109.87802 | 37882 ft | 482 kts | 311° |
| 2026-05-04 13:46 | -3.48335 | 109.82293 | 37886 ft | 481 kts | 311° |
| 2026-05-04 13:46 | -3.43489 | 109.76655 | 37889 ft | 482 kts | 311° |
| 2026-05-04 13:47 | -3.38697 | 109.71079 | 37889 ft | 481 kts | 311° |
| 2026-05-04 13:47 | -3.33887 | 109.65485 | 37889 ft | 480 kts | 311° |
| 2026-05-04 13:48 | -3.29152 | 109.59977 | 37890 ft | 480 kts | 311° |
| 2026-05-04 13:48 | -3.24341 | 109.54382 | 37890 ft | 481 kts | 311° |
| 2026-05-04 13:49 | -3.19561 | 109.48826 | 37890 ft | 480 kts | 311° |
| 2026-05-04 13:49 | -3.14828 | 109.43323 | 37890 ft | 480 kts | 311° |
| 2026-05-04 13:50 | -3.10112 | 109.37842 | 37890 ft | 479 kts | 311° |
| 2026-05-04 13:50 | -3.05452 | 109.32426 | 37888 ft | 479 kts | 311° |
| 2026-05-04 13:51 | -3.00749 | 109.26962 | 37888 ft | 480 kts | 311° |
| 2026-05-04 13:51 | -2.96042 | 109.21493 | 37888 ft | 480 kts | 311° |
| 2026-05-04 13:52 | -2.88935 | 109.13238 | 37890 ft | 478 kts | 311° |
| 2026-05-04 13:53 | -2.84169 | 109.07723 | 37890 ft | 479 kts | 311° |
| 2026-05-04 13:53 | -2.79408 | 109.02217 | 37889 ft | 481 kts | 311° |
| 2026-05-04 13:54 | -2.72205 | 108.93887 | 37889 ft | 480 kts | 311° |
| 2026-05-04 13:55 | -2.65024 | 108.85584 | 37890 ft | 480 kts | 311° |
| 2026-05-04 13:55 | -2.57853 | 108.77295 | 37890 ft | 480 kts | 311° |
| 2026-05-04 13:56 | -2.53063 | 108.71758 | 37890 ft | 482 kts | 311° |
| 2026-05-04 13:57 | -2.45885 | 108.63454 | 37890 ft | 481 kts | 311° |
| 2026-05-04 13:58 | -2.36416 | 108.52470 | 37890 ft | 481 kts | 311° |
| 2026-05-04 13:58 | -2.29448 | 108.44389 | 37892 ft | 484 kts | 311° |
| 2026-05-04 13:59 | -2.24794 | 108.38993 | 37894 ft | 483 kts | 311° |
| 2026-05-04 14:00 | -2.17729 | 108.30804 | 37895 ft | 483 kts | 311° |
| 2026-05-04 14:00 | -2.10637 | 108.22583 | 37889 ft | 484 kts | 311° |
| 2026-05-04 14:01 | -2.05852 | 108.17038 | 37888 ft | 483 kts | 311° |
| 2026-05-04 14:02 | -1.98664 | 108.08702 | 37890 ft | 483 kts | 311° |
| 2026-05-04 14:02 | -1.93789 | 108.03049 | 37889 ft | 484 kts | 311° |
| 2026-05-04 14:03 | -1.89085 | 107.97594 | 37889 ft | 484 kts | 311° |
| 2026-05-04 14:03 | -1.84274 | 107.92016 | 37890 ft | 484 kts | 311° |
| 2026-05-04 14:04 | -1.77117 | 107.83718 | 37890 ft | 483 kts | 311° |
| 2026-05-04 14:04 | -1.72342 | 107.78184 | 37890 ft | 483 kts | 312° |
| 2026-05-04 14:05 | -1.65088 | 107.69776 | 37890 ft | 483 kts | 311° |
| 2026-05-04 14:06 | -1.60226 | 107.64142 | 37886 ft | 484 kts | 312° |
| 2026-05-04 14:06 | -1.55416 | 107.58567 | 37884 ft | 484 kts | 312° |
| 2026-05-04 14:07 | -1.50593 | 107.52978 | 37892 ft | 484 kts | 312° |
| 2026-05-04 14:07 | -1.45890 | 107.47529 | 37896 ft | 484 kts | 312° |
| 2026-05-04 14:08 | -1.41114 | 107.41997 | 37893 ft | 485 kts | 312° |
| 2026-05-04 14:08 | -1.36367 | 107.36497 | 37892 ft | 484 kts | 312° |
| 2026-05-04 14:09 | -1.29139 | 107.28342 | 37888 ft | 483 kts | 313° |
| 2026-05-04 14:10 | -1.21807 | 107.20082 | 37888 ft | 483 kts | 313° |
| 2026-05-04 14:10 | -1.16920 | 107.14574 | 37889 ft | 484 kts | 313° |
| 2026-05-04 14:11 | -1.12041 | 107.09073 | 37888 ft | 484 kts | 313° |
| 2026-05-04 14:11 | -1.04635 | 107.00722 | 37889 ft | 482 kts | 313° |
| 2026-05-04 14:12 | -0.99744 | 106.95209 | 37889 ft | 483 kts | 313° |
| 2026-05-04 14:13 | -0.92375 | 106.86901 | 37889 ft | 482 kts | 313° |
| 2026-05-04 14:13 | -0.87444 | 106.81342 | 37890 ft | 482 kts | 313° |
| 2026-05-04 14:14 | -0.82560 | 106.75836 | 37891 ft | 483 kts | 313° |
| 2026-05-04 14:14 | -0.75242 | 106.67586 | 37891 ft | 483 kts | 313° |
| 2026-05-04 14:15 | -0.65425 | 106.56521 | 37892 ft | 482 kts | 313° |
| 2026-05-04 14:16 | -0.57627 | 106.48656 | 37891 ft | 481 kts | 320° |
| 2026-05-04 14:17 | -0.49376 | 106.41337 | 37892 ft | 481 kts | 320° |
| 2026-05-04 14:18 | -0.41358 | 106.34218 | 37889 ft | 481 kts | 320° |
| 2026-05-04 14:19 | -0.30579 | 106.24643 | 37888 ft | 481 kts | 320° |
| 2026-05-04 14:19 | -0.25430 | 106.20069 | 37889 ft | 481 kts | 320° |
| 2026-05-04 14:20 | -0.20119 | 106.15350 | 37891 ft | 482 kts | 320° |
| 2026-05-04 14:20 | -0.15014 | 106.10815 | 37890 ft | 482 kts | 320° |
| 2026-05-04 14:21 | -0.07372 | 106.04025 | 37888 ft | 481 kts | 320° |
| 2026-05-04 14:21 | -0.02271 | 105.99494 | 37889 ft | 482 kts | 320° |
| 2026-05-04 14:22 | 0.02802 | 105.94987 | 37887 ft | 482 kts | 320° |
| 2026-05-04 14:22 | 0.08250 | 105.90147 | 37887 ft | 483 kts | 320° |
| 2026-05-04 14:23 | 0.16278 | 105.83015 | 37888 ft | 483 kts | 320° |
| 2026-05-04 14:24 | 0.21671 | 105.78224 | 37888 ft | 483 kts | 320° |
| 2026-05-04 14:24 | 0.27086 | 105.73412 | 37886 ft | 484 kts | 320° |
| 2026-05-04 14:25 | 0.32393 | 105.68698 | 37893 ft | 483 kts | 320° |
| 2026-05-04 14:25 | 0.40459 | 105.61531 | 37887 ft | 484 kts | 320° |
| 2026-05-04 14:26 | 0.43072 | 105.59208 | 37384 ft | 478 kts | 320° |
| 2026-05-04 14:26 | 0.45803 | 105.56782 | 36146 ft | 483 kts | 320° |
| 2026-05-04 14:26 | 0.48535 | 105.54355 | 35111 ft | 485 kts | 320° |
| 2026-05-04 14:26 | 0.51213 | 105.51976 | 34156 ft | 485 kts | 319° |
| 2026-05-04 14:27 | 0.53923 | 105.49568 | 33183 ft | 485 kts | 319° |
| 2026-05-04 14:27 | 0.56627 | 105.47166 | 32226 ft | 486 kts | 319° |
| 2026-05-04 14:27 | 0.59118 | 105.44952 | 31379 ft | 488 kts | 319° |
| 2026-05-04 14:27 | 0.61799 | 105.42571 | 30460 ft | 489 kts | 320° |
| 2026-05-04 14:28 | 0.64672 | 105.40414 | 29900 ft | 481 kts | 329° |
| 2026-05-04 14:28 | 0.67702 | 105.38643 | 29330 ft | 477 kts | 332° |
| 2026-05-04 14:28 | 0.70804 | 105.36898 | 28697 ft | 489 kts | 332° |
| 2026-05-04 14:28 | 0.73917 | 105.35150 | 28062 ft | 489 kts | 332° |
| 2026-05-04 14:29 | 0.79898 | 105.31791 | 26832 ft | 481 kts | 332° |
| 2026-05-04 14:29 | 0.85991 | 105.28371 | 25567 ft | 473 kts | 332° |
| 2026-05-04 14:30 | 0.88904 | 105.26736 | 24951 ft | 469 kts | 332° |
| 2026-05-04 14:30 | 0.91745 | 105.25140 | 24376 ft | 464 kts | 332° |
| 2026-05-04 14:30 | 0.97360 | 105.21988 | 23792 ft | 440 kts | 332° |
| 2026-05-04 14:31 | 1.00011 | 105.20498 | 23771 ft | 423 kts | 332° |
| 2026-05-04 14:31 | 1.05025 | 105.17683 | 23753 ft | 390 kts | 332° |
| 2026-05-04 14:32 | 1.09666 | 105.15078 | 23732 ft | 360 kts | 333° |
| 2026-05-04 14:32 | 1.11910 | 105.13819 | 23557 ft | 358 kts | 333° |
| 2026-05-04 14:32 | 1.14077 | 105.12489 | 23174 ft | 360 kts | 323° |
| 2026-05-04 14:32 | 1.15902 | 105.10602 | 22772 ft | 362 kts | 306° |
| 2026-05-04 14:33 | 1.17087 | 105.08324 | 22378 ft | 362 kts | 289° |
| 2026-05-04 14:33 | 1.17587 | 105.05726 | 21985 ft | 362 kts | 274° |
| 2026-05-04 14:33 | 1.17628 | 105.03147 | 21616 ft | 360 kts | 270° |
| 2026-05-04 14:33 | 1.17598 | 105.00572 | 21242 ft | 359 kts | 270° |
| 2026-05-04 14:34 | 1.17553 | 104.97988 | 20860 ft | 357 kts | 269° |
| 2026-05-04 14:34 | 1.17504 | 104.95398 | 20478 ft | 355 kts | 269° |
| 2026-05-04 14:34 | 1.17453 | 104.92865 | 20387 ft | 343 kts | 269° |
| 2026-05-04 14:34 | 1.17403 | 104.90433 | 20375 ft | 329 kts | 269° |
| 2026-05-04 14:35 | 1.17354 | 104.88117 | 20344 ft | 316 kts | 269° |
| 2026-05-04 14:35 | 1.17306 | 104.85838 | 20033 ft | 315 kts | 269° |
| 2026-05-04 14:35 | 1.17257 | 104.83513 | 19676 ft | 315 kts | 269° |
| 2026-05-04 14:35 | 1.17209 | 104.81265 | 19320 ft | 315 kts | 269° |
| 2026-05-04 14:36 | 1.17158 | 104.79010 | 18967 ft | 316 kts | 269° |
| 2026-05-04 14:36 | 1.17099 | 104.76709 | 18606 ft | 316 kts | 269° |
| 2026-05-04 14:36 | 1.17040 | 104.74402 | 18245 ft | 316 kts | 269° |
| 2026-05-04 14:36 | 1.16981 | 104.72081 | 17878 ft | 317 kts | 269° |
| 2026-05-04 14:37 | 1.16923 | 104.69790 | 17520 ft | 317 kts | 269° |
| 2026-05-04 14:37 | 1.16864 | 104.67459 | 17155 ft | 317 kts | 269° |
| 2026-05-04 14:37 | 1.16805 | 104.65110 | 16785 ft | 317 kts | 269° |
| 2026-05-04 14:37 | 1.16745 | 104.62718 | 16413 ft | 317 kts | 269° |
| 2026-05-04 14:38 | 1.16685 | 104.60334 | 16042 ft | 318 kts | 269° |
| 2026-05-04 14:38 | 1.16625 | 104.57979 | 15673 ft | 318 kts | 269° |
| 2026-05-04 14:38 | 1.16564 | 104.55580 | 15295 ft | 317 kts | 269° |
| 2026-05-04 14:38 | 1.16504 | 104.53192 | 14916 ft | 317 kts | 269° |
| 2026-05-04 14:39 | 1.16443 | 104.50786 | 14533 ft | 317 kts | 269° |
| 2026-05-04 14:39 | 1.16383 | 104.48382 | 14151 ft | 317 kts | 269° |
| 2026-05-04 14:39 | 1.16321 | 104.45963 | 13774 ft | 317 kts | 269° |
| 2026-05-04 14:40 | 1.16197 | 104.41054 | 12992 ft | 316 kts | 269° |
| 2026-05-04 14:40 | 1.16118 | 104.38659 | 12606 ft | 315 kts | 266° |
| 2026-05-04 14:40 | 1.15902 | 104.36240 | 12219 ft | 314 kts | 265° |
| 2026-05-04 14:40 | 1.15683 | 104.33894 | 11832 ft | 314 kts | 265° |
| 2026-05-04 14:41 | 1.15476 | 104.31543 | 11445 ft | 313 kts | 265° |
| 2026-05-04 14:41 | 1.15273 | 104.29151 | 11143 ft | 308 kts | 265° |
| 2026-05-04 14:41 | 1.14893 | 104.24629 | 11110 ft | 279 kts | 265° |
| 2026-05-04 14:42 | 1.14560 | 104.20611 | 10919 ft | 262 kts | 266° |
| 2026-05-04 14:42 | 1.14421 | 104.18625 | 10641 ft | 261 kts | 266° |
| 2026-05-04 14:42 | 1.14288 | 104.16741 | 10366 ft | 260 kts | 267° |
| 2026-05-04 14:43 | 1.14153 | 104.14848 | 10094 ft | 259 kts | 267° |
| 2026-05-04 14:43 | 1.14015 | 104.12919 | 9990 ft | 250 kts | 266° |
| 2026-05-04 14:43 | 1.13884 | 104.11096 | 9983 ft | 236 kts | 266° |
| 2026-05-04 14:43 | 1.13761 | 104.09396 | 9976 ft | 222 kts | 266° |
| 2026-05-04 14:44 | 1.13649 | 104.07821 | 9896 ft | 220 kts | 266° |
| 2026-05-04 14:44 | 1.13531 | 104.06189 | 9657 ft | 219 kts | 266° |
| 2026-05-04 14:44 | 1.13416 | 104.04592 | 9412 ft | 216 kts | 267° |
| 2026-05-04 14:44 | 1.13306 | 104.03057 | 9170 ft | 214 kts | 267° |
| 2026-05-04 14:45 | 1.13196 | 104.01525 | 8927 ft | 213 kts | 267° |
| 2026-05-04 14:45 | 1.13086 | 104.00003 | 8683 ft | 211 kts | 267° |
| 2026-05-04 14:45 | 1.12978 | 103.98499 | 8438 ft | 210 kts | 267° |
| 2026-05-04 14:45 | 1.12866 | 103.97005 | 8198 ft | 209 kts | 267° |
| 2026-05-04 14:46 | 1.12755 | 103.95519 | 7955 ft | 208 kts | 267° |
| 2026-05-04 14:46 | 1.12644 | 103.94034 | 7715 ft | 208 kts | 267° |
| 2026-05-04 14:46 | 1.12534 | 103.92553 | 7472 ft | 207 kts | 267° |
| 2026-05-04 14:46 | 1.12424 | 103.91075 | 7226 ft | 206 kts | 267° |
| 2026-05-04 14:47 | 1.12313 | 103.89576 | 6972 ft | 206 kts | 267° |
| 2026-05-04 14:47 | 1.12200 | 103.88058 | 6724 ft | 206 kts | 267° |
| 2026-05-04 14:47 | 1.12089 | 103.86569 | 6472 ft | 206 kts | 267° |
| 2026-05-04 14:47 | 1.11981 | 103.85114 | 6230 ft | 204 kts | 267° |
| 2026-05-04 14:48 | 1.11869 | 103.83624 | 5980 ft | 203 kts | 267° |
| 2026-05-04 14:48 | 1.11761 | 103.82179 | 5733 ft | 202 kts | 267° |
| 2026-05-04 14:48 | 1.11855 | 103.80787 | 5496 ft | 198 kts | 292° |
| 2026-05-04 14:48 | 1.12670 | 103.79717 | 5235 ft | 195 kts | 327° |
| 2026-05-04 14:49 | 1.13942 | 103.79313 | 4968 ft | 193 kts | 1° |
| 2026-05-04 14:49 | 1.15206 | 103.79702 | 4706 ft | 192 kts | 35° |
| 2026-05-04 14:49 | 1.16061 | 103.80712 | 4453 ft | 191 kts | 57° |
| 2026-05-04 14:49 | 1.16743 | 103.81854 | 4210 ft | 191 kts | 58° |
| 2026-05-04 14:50 | 1.17419 | 103.82997 | 3972 ft | 191 kts | 58° |
| 2026-05-04 14:50 | 1.18093 | 103.84138 | 3734 ft | 190 kts | 58° |
| 2026-05-04 14:50 | 1.18766 | 103.85276 | 3495 ft | 190 kts | 58° |
| 2026-05-04 14:50 | 1.19445 | 103.86427 | 3254 ft | 190 kts | 58° |
| 2026-05-04 14:51 | 1.20149 | 103.87617 | 3004 ft | 190 kts | 58° |
| 2026-05-04 14:51 | 1.20847 | 103.88800 | 2756 ft | 190 kts | 59° |
| 2026-05-04 14:51 | 1.21537 | 103.89969 | 2534 ft | 188 kts | 59° |
| 2026-05-04 14:51 | 1.22193 | 103.91083 | 2491 ft | 177 kts | 59° |
| 2026-05-04 14:52 | 1.22804 | 103.92121 | 2480 ft | 162 kts | 58° |
| 2026-05-04 14:52 | 1.23498 | 103.93001 | 2334 ft | 157 kts | 33° |
| 2026-05-04 14:52 | 1.24502 | 103.93427 | 2154 ft | 156 kts | 21° |
| 2026-05-04 14:52 | 1.25477 | 103.93800 | 1970 ft | 142 kts | 24° |
| 2026-05-04 14:53 | 1.26371 | 103.94179 | 1799 ft | 136 kts | 24° |
| 2026-05-04 14:53 | 1.27243 | 103.94545 | 1629 ft | 135 kts | 24° |
| 2026-05-04 14:53 | 1.28114 | 103.94910 | 1456 ft | 134 kts | 24° |
| 2026-05-04 14:53 | 1.28996 | 103.95280 | 1280 ft | 135 kts | 24° |
| 2026-05-04 14:54 | 1.29901 | 103.95660 | 1098 ft | 136 kts | 24° |
| 2026-05-04 14:54 | 1.30801 | 103.96036 | 909 ft | 136 kts | 24° |
| 2026-05-04 14:54 | 1.31681 | 103.96410 | 740 ft | 136 kts | 24° |
| 2026-05-04 14:54 | 1.32567 | 103.96776 | 588 ft | 137 kts | 22° |
| 2026-05-04 14:55 | 1.33461 | 103.97150 | 402 ft | 136 kts | 24° |
| 2026-05-04 14:55 | 1.34344 | 103.97523 | 191 ft | 136 kts | 23° |
| 2026-05-04 14:55 | 1.35228 | 103.97887 | 63 ft | 135 kts | 23° |
| 2026-05-04 14:55 | 1.36001 | 103.98211 | 47 ft | 102 kts | 23° |
| 2026-05-04 14:56 | 1.36549 | 103.98439 | 47 ft | 67 kts | 23° |
| 2026-05-04 14:56 | 1.36883 | 103.98581 | 48 ft | 43 kts | 23° |
| 2026-05-04 14:56 | 1.37103 | 103.98752 | 48 ft | 24 kts | 59° |
| 2026-05-04 14:56 | 1.37074 | 103.98834 | 48 ft | 13 kts | 173° |
| 2026-05-04 14:57 | 1.36978 | 103.98808 | 48 ft | 15 kts | 202° |
| 2026-05-04 14:57 | 1.36870 | 103.98766 | 48 ft | 17 kts | 201° |
| 2026-05-04 14:57 | 1.36749 | 103.98717 | 48 ft | 19 kts | 203° |
| 2026-05-04 14:57 | 1.36617 | 103.98662 | 48 ft | 21 kts | 204° |
| 2026-05-04 14:58 | 1.36470 | 103.98599 | 48 ft | 22 kts | 203° |
| 2026-05-04 14:58 | 1.36314 | 103.98534 | 47 ft | 24 kts | 202° |
| 2026-05-04 14:58 | 1.36145 | 103.98464 | 47 ft | 25 kts | 202° |
| 2026-05-04 14:58 | 1.35972 | 103.98391 | 47 ft | 27 kts | 203° |
| 2026-05-04 14:59 | 1.35810 | 103.98323 | 47 ft | 15 kts | 201° |
| 2026-05-04 14:59 | 1.35701 | 103.98357 | 47 ft | 16 kts | 169° |
| 2026-05-04 14:59 | 1.35444 | 103.98282 | 47 ft | 16 kts | 171° |
| 2026-05-04 15:00 | 1.35396 | 103.98310 | 47 ft | 5 kts | 121° |
| 2026-05-04 15:00 | 1.35385 | 103.98366 | 47 ft | 9 kts | 102° |
| 2026-05-04 15:00 | 1.35368 | 103.98412 | 47 ft | 4 kts | 112° |
| 2026-05-04 15:01 | 1.35363 | 103.98425 | 47 ft | 0 kts | 111° |